Time;durP1;ratioP1;P1;durP2;ratioP2;P2;SDS_P1;SDS_P2;PMS_P1;PMS_P2;Temp;Humidity;BMP_temperature;BMP_pressure;BME280_temperature;BME280_humidity;BME280_pressure;Samples;Min_cycle;Max_cycle;Signal;HPM_P1;HPM_P2
2021/10/14 00:01:02;;;;;;;5.88;3.65;;;4.10;99.90;;;;;;4960273;28;20062;-80
2021/10/14 00:03:28;;;;;;;10.65;5.13;;;4.10;99.90;;;;;;4950772;29;20058;-79
2021/10/14 00:05:54;;;;;;;5.32;4.13;;;4.20;99.90;;;;;;4944107;29;20054;-79
2021/10/14 00:08:20;;;;;;;9.40;4.40;;;4.20;99.90;;;;;;4945059;29;20039;-79
2021/10/14 00:10:45;;;;;;;8.05;4.90;;;4.20;99.90;;;;;;4943586;29;20027;-80
2021/10/14 00:13:11;;;;;;;9.90;4.95;;;4.00;99.90;;;;;;4946411;28;20086;-79
2021/10/14 00:15:36;;;;;;;12.75;5.20;;;4.20;99.90;;;;;;4981602;28;20029;-79
2021/10/14 00:18:02;;;;;;;10.27;6.00;;;4.00;99.90;;;;;;4979909;28;20093;-79
2021/10/14 00:20:28;;;;;;;13.65;6.30;;;4.20;99.90;;;;;;4959950;28;20118;-80
2021/10/14 00:22:55;;;;;;;9.80;5.95;;;4.10;99.90;;;;;;4942951;29;20085;-80
2021/10/14 00:25:22;;;;;;;10.68;6.00;;;4.20;99.90;;;;;;4960558;28;20039;-80
2021/10/14 00:27:51;;;;;;;7.82;4.72;;;4.20;99.90;;;;;;4962074;28;20087;-80
2021/10/14 00:30:19;;;;;;;5.43;4.03;;;4.30;99.90;;;;;;4965028;28;20084;-79
2021/10/14 00:32:45;;;;;;;7.13;4.72;;;4.30;99.90;;;;;;4965153;28;20039;-79
2021/10/14 00:35:10;;;;;;;6.53;4.47;;;4.40;99.90;;;;;;4965033;29;20520;-79
2021/10/14 00:37:36;;;;;;;6.90;4.43;;;4.50;99.90;;;;;;4958082;29;20110;-79
2021/10/14 00:40:03;;;;;;;8.57;5.43;;;4.50;99.90;;;;;;4972358;28;20038;-80
2021/10/14 00:42:29;;;;;;;15.98;9.45;;;4.30;99.90;;;;;;4975456;28;20043;-79
2021/10/14 00:44:55;;;;;;;26.95;14.63;;;4.40;99.90;;;;;;4959027;28;20039;-80
2021/10/14 00:47:23;;;;;;;28.52;14.43;;;4.50;99.90;;;;;;4958954;28;20042;-80
2021/10/14 00:49:49;;;;;;;23.60;10.85;;;4.20;99.90;;;;;;4959629;28;20527;-79
2021/10/14 00:52:15;;;;;;;16.75;9.50;;;4.30;99.90;;;;;;4957213;28;20027;-80
2021/10/14 00:54:41;;;;;;;11.60;7.53;;;4.10;99.90;;;;;;4970651;28;20027;-80
2021/10/14 00:57:08;;;;;;;12.52;6.70;;;4.20;99.90;;;;;;4964383;28;20031;-79
2021/10/14 00:59:36;;;;;;;10.10;6.47;;;4.20;99.90;;;;;;4956724;28;20077;-79
2021/10/14 01:02:02;;;;;;;11.95;6.78;;;4.30;99.90;;;;;;4957317;28;20070;-79
2021/10/14 01:04:28;;;;;;;16.13;6.63;;;4.30;99.90;;;;;;4975729;28;20031;-80
2021/10/14 01:06:53;;;;;;;11.10;6.43;;;4.40;99.90;;;;;;4976509;28;20049;-79
2021/10/14 01:09:20;;;;;;;15.95;7.68;;;4.30;99.90;;;;;;4969523;28;20121;-79
2021/10/14 01:11:45;;;;;;;12.40;6.32;;;4.40;99.90;;;;;;4939619;28;20049;-80
2021/10/14 01:14:11;;;;;;;13.63;7.03;;;4.40;99.90;;;;;;4976823;28;20090;-79
2021/10/14 01:16:41;;;;;;;11.55;6.22;;;4.30;99.90;;;;;;4980886;28;20026;-80
2021/10/14 01:19:08;;;;;;;8.80;5.55;;;4.40;99.90;;;;;;4961409;28;20070;-80
2021/10/14 01:21:34;;;;;;;11.57;5.50;;;4.30;99.90;;;;;;4943132;29;20035;-80
2021/10/14 01:24:00;;;;;;;8.85;5.10;;;4.20;99.90;;;;;;4960811;28;20038;-80
2021/10/14 01:26:27;;;;;;;9.45;4.50;;;4.20;99.90;;;;;;4959144;29;20106;-80
2021/10/14 01:28:53;;;;;;;7.75;4.57;;;4.20;99.90;;;;;;4977394;28;20039;-80
2021/10/14 01:31:22;;;;;;;6.75;3.90;;;4.10;99.90;;;;;;4982482;28;20027;-80
2021/10/14 01:33:48;;;;;;;7.03;4.28;;;4.70;99.90;;;;;;4951535;29;20055;-80
2021/10/14 01:36:13;;;;;;;9.05;5.15;;;3.90;99.90;;;;;;4963005;29;20027;-80
2021/10/14 01:38:39;;;;;;;7.05;4.65;;;3.70;99.90;;;;;;4975457;28;20035;-80
2021/10/14 01:41:04;;;;;;;10.88;5.60;;;3.80;99.90;;;;;;4966032;28;20042;-80
2021/10/14 01:43:30;;;;;;;8.68;4.57;;;4.00;99.90;;;;;;4964043;28;20039;-80
2021/10/14 01:45:56;;;;;;;10.57;5.30;;;3.80;99.90;;;;;;4964056;29;20642;-80
2021/10/14 01:48:22;;;;;;;9.40;5.30;;;3.60;99.90;;;;;;4972436;28;20039;-80
2021/10/14 01:50:48;;;;;;;7.47;4.90;;;4.00;99.90;;;;;;4980177;28;20035;-80
2021/10/14 01:53:14;;;;;;;9.00;5.10;;;3.60;99.90;;;;;;4971493;28;20030;-80
2021/10/14 01:55:40;;;;;;;7.43;4.80;;;3.50;99.90;;;;;;4960792;29;20034;-80
2021/10/14 01:58:06;;;;;;;9.35;4.55;;;3.50;99.90;;;;;;4964908;28;20028;-79
2021/10/14 02:00:32;;;;;;;6.45;4.07;;;3.40;99.90;;;;;;4960806;28;20025;-80
2021/10/14 02:02:58;;;;;;;6.45;3.72;;;3.50;99.90;;;;;;4950073;28;20027;-80
2021/10/14 02:05:23;;;;;;;6.43;4.30;;;3.60;99.90;;;;;;4981306;28;20388;-80
2021/10/14 02:07:49;;;;;;;5.82;4.00;;;3.70;99.90;;;;;;4976084;28;20027;-80
2021/10/14 02:10:14;;;;;;;5.82;3.90;;;3.50;99.90;;;;;;4962451;28;20385;-80
2021/10/14 02:12:40;;;;;;;6.47;4.20;;;3.50;99.90;;;;;;4966480;28;20037;-80
2021/10/14 02:15:06;;;;;;;7.93;3.92;;;3.30;99.90;;;;;;4963952;28;20488;-80
2021/10/14 02:17:31;;;;;;;8.00;4.15;;;3.20;99.90;;;;;;4976727;28;20063;-80
2021/10/14 02:19:57;;;;;;;12.68;7.45;;;3.00;99.90;;;;;;4960089;29;20700;-80
2021/10/14 02:22:23;;;;;;;23.92;14.90;;;3.20;99.90;;;;;;4946714;28;20042;-80
2021/10/14 02:24:48;;;;;;;13.20;6.18;;;3.00;99.90;;;;;;4962793;28;20476;-80
2021/10/14 02:27:14;;;;;;;7.13;4.65;;;3.60;99.90;;;;;;4951833;28;20038;-80
2021/10/14 02:29:39;;;;;;;7.50;4.25;;;3.20;99.90;;;;;;4981282;28;20095;-80
2021/10/14 02:32:05;;;;;;;9.15;4.80;;;3.20;99.90;;;;;;4953545;28;20046;-80
2021/10/14 02:34:31;;;;;;;9.95;4.63;;;3.20;99.90;;;;;;4982219;28;20023;-80
2021/10/14 02:36:56;;;;;;;10.35;5.07;;;3.10;99.90;;;;;;4962806;28;20027;-80
2021/10/14 02:39:22;;;;;;;7.88;4.80;;;3.30;99.90;;;;;;4980177;28;20046;-80
2021/10/14 02:41:47;;;;;;;7.65;4.03;;;3.40;99.90;;;;;;4960978;29;20039;-80
2021/10/14 02:44:13;;;;;;;6.00;4.03;;;3.30;99.90;;;;;;4978390;28;20090;-80
2021/10/14 02:46:39;;;;;;;7.05;4.35;;;3.20;99.90;;;;;;4980368;28;20034;-79
2021/10/14 02:49:04;;;;;;;8.25;3.70;;;3.40;99.90;;;;;;4964309;28;20110;-80
2021/10/14 02:51:30;;;;;;;8.10;4.05;;;3.20;99.90;;;;;;4958430;28;20085;-80
2021/10/14 02:53:55;;;;;;;7.53;3.70;;;3.30;99.90;;;;;;4973279;28;20069;-80
2021/10/14 02:56:21;;;;;;;6.85;3.83;;;3.30;99.90;;;;;;4972389;28;20125;-80
2021/10/14 02:58:47;;;;;;;5.90;3.63;;;3.30;99.90;;;;;;4972643;28;20190;-80
2021/10/14 03:01:13;;;;;;;6.18;3.85;;;;;;;;;;4962755;28;20094;-80
2021/10/14 03:03:38;;;;;;;6.90;3.85;;;3.20;99.90;;;;;;4978313;28;20041;-80
2021/10/14 03:06:04;;;;;;;8.98;4.78;;;4.90;99.90;;;;;;4952150;28;20054;-80
2021/10/14 03:08:29;;;;;;;6.47;3.50;;;3.30;99.90;;;;;;4958305;29;20035;-80
2021/10/14 03:10:55;;;;;;;7.15;4.20;;;3.40;99.90;;;;;;4958519;29;20386;-80
2021/10/14 03:13:21;;;;;;;5.35;3.65;;;3.50;99.90;;;;;;4969656;28;20031;-80
2021/10/14 03:15:47;;;;;;;9.18;4.00;;;3.20;99.90;;;;;;4978323;28;20034;-80
2021/10/14 03:18:12;;;;;;;10.52;4.80;;;3.10;99.90;;;;;;4970223;28;20106;-80
2021/10/14 03:20:38;;;;;;;12.23;4.30;;;3.10;99.90;;;;;;4940620;29;20039;-80
2021/10/14 03:23:03;;;;;;;6.82;3.70;;;3.00;99.90;;;;;;4948800;28;20038;-80
2021/10/14 03:25:29;;;;;;;7.15;4.18;;;2.90;99.90;;;;;;4942152;29;20035;-80
2021/10/14 03:27:55;;;;;;;7.85;4.47;;;3.00;99.90;;;;;;4946812;29;20506;-80
2021/10/14 03:30:20;;;;;;;6.97;4.05;;;3.10;99.90;;;;;;4928464;29;20126;-79
2021/10/14 03:32:46;;;;;;;8.75;4.70;;;3.10;99.90;;;;;;4968524;28;20062;-78
2021/10/14 03:35:12;;;;;;;8.93;4.57;;;3.00;99.90;;;;;;4976309;28;20031;-78
2021/10/14 03:37:37;;;;;;;9.20;4.65;;;3.00;99.90;;;;;;4970809;28;20055;-78
2021/10/14 03:40:03;;;;;;;7.75;4.88;;;3.20;99.90;;;;;;4954917;28;20373;-78
2021/10/14 03:42:29;;;;;;;6.70;4.30;;;3.20;99.90;;;;;;4959411;28;20035;-78
2021/10/14 03:44:55;;;;;;;10.70;4.75;;;3.20;99.90;;;;;;4955369;29;20042;-78
2021/10/14 03:47:20;;;;;;;7.50;4.93;;;3.20;99.90;;;;;;4957149;28;20528;-78
2021/10/14 03:49:46;;;;;;;12.75;4.93;;;4.50;99.90;;;;;;4973238;28;20071;-78
2021/10/14 03:52:12;;;;;;;11.35;5.65;;;3.40;99.90;;;;;;4973237;28;20113;-78
2021/10/14 03:54:37;;;;;;;11.93;4.95;;;3.50;99.90;;;;;;4955119;29;20189;-78
2021/10/14 03:57:03;;;;;;;9.20;5.05;;;3.50;99.90;;;;;;4955350;28;20027;-78
2021/10/14 03:59:29;;;;;;;10.27;4.88;;;4.30;99.90;;;;;;4938862;29;20436;-78
2021/10/14 04:01:54;;;;;;;8.02;4.75;;;3.80;99.90;;;;;;4938117;28;20027;-78
2021/10/14 04:04:23;;;;;;;11.30;5.00;;;3.90;99.90;;;;;;4957067;28;20093;-78
2021/10/14 04:06:48;;;;;;;10.43;5.00;;;4.00;99.90;;;;;;4956207;29;20031;-78
2021/10/14 04:09:14;;;;;;;9.57;4.63;;;4.00;99.90;;;;;;4954440;28;20045;-78
2021/10/14 04:11:39;;;;;;;9.43;4.63;;;4.10;99.90;;;;;;4974315;28;20437;-78
2021/10/14 04:14:05;;;;;;;9.50;4.43;;;3.90;99.90;;;;;;4968314;28;20035;-78
2021/10/14 04:16:31;;;;;;;11.80;4.78;;;3.90;99.90;;;;;;4958991;28;20027;-78
2021/10/14 04:18:56;;;;;;;5.45;3.72;;;3.80;99.90;;;;;;4944197;29;20408;-78
2021/10/14 04:21:22;;;;;;;7.22;4.28;;;3.80;99.90;;;;;;4940176;29;20058;-80
2021/10/14 04:23:48;;;;;;;10.82;5.25;;;4.10;99.90;;;;;;4971212;28;20456;-79
2021/10/14 04:26:13;;;;;;;14.32;5.80;;;3.60;99.90;;;;;;4972982;28;20428;-78
2021/10/14 04:28:39;;;;;;;9.13;5.50;;;3.40;99.90;;;;;;4969871;28;20476;-78
2021/10/14 04:31:06;;;;;;;9.30;5.47;;;3.40;99.90;;;;;;4959376;28;20023;-78
2021/10/14 04:33:31;;;;;;;7.78;5.40;;;3.40;99.90;;;;;;4966063;28;20035;-78
2021/10/14 04:36:01;;;;;;;9.90;5.25;;;3.50;99.90;;;;;;4942065;29;20495;-79
2021/10/14 04:38:28;;;;;;;10.80;5.78;;;3.30;99.90;;;;;;4967339;28;20058;-79
2021/10/14 04:40:54;;;;;;;8.50;5.38;;;3.20;99.90;;;;;;4976533;28;20042;-79
2021/10/14 04:43:19;;;;;;;17.13;8.13;;;3.30;99.90;;;;;;4955646;28;20028;-79
2021/10/14 04:45:45;;;;;;;13.70;8.27;;;3.30;99.90;;;;;;4956849;29;20031;-79
2021/10/14 04:48:11;;;;;;;12.35;7.57;;;3.30;99.90;;;;;;4964549;28;20508;-81
2021/10/14 04:50:36;;;;;;;11.68;7.55;;;3.30;99.90;;;;;;4975233;28;20035;-80
2021/10/14 04:53:02;;;;;;;12.05;6.05;;;3.20;99.90;;;;;;4969155;28;20034;-80
2021/10/14 04:55:28;;;;;;;12.60;5.90;;;3.50;99.90;;;;;;4956135;29;20484;-80
2021/10/14 04:57:53;;;;;;;13.43;5.82;;;3.40;99.90;;;;;;4969214;28;20038;-80
2021/10/14 05:00:19;;;;;;;10.40;5.25;;;3.30;99.90;;;;;;4959450;28;20085;-80
2021/10/14 05:02:45;;;;;;;10.93;5.93;;;3.30;99.90;;;;;;4971065;28;20039;-80
2021/10/14 05:05:11;;;;;;;12.38;6.47;;;3.20;99.90;;;;;;4957800;29;20027;-80
2021/10/14 05:07:36;;;;;;;15.90;7.97;;;3.20;99.90;;;;;;4960995;28;20031;-80
2021/10/14 05:10:03;;;;;;;12.82;7.10;;;3.20;99.90;;;;;;4975882;28;20120;-80
2021/10/14 05:12:28;;;;;;;14.02;8.02;;;3.10;99.90;;;;;;4973645;28;20110;-81
2021/10/14 05:14:54;;;;;;;14.10;6.85;;;3.10;99.90;;;;;;4957009;29;20128;-80
2021/10/14 05:17:19;;;;;;;11.48;6.53;;;3.20;99.90;;;;;;4959535;28;20028;-80
2021/10/14 05:19:45;;;;;;;11.00;6.75;;;3.20;99.90;;;;;;4986263;28;20034;-80
2021/10/14 05:22:11;;;;;;;11.82;6.13;;;3.30;99.90;;;;;;4988919;28;20031;-80
2021/10/14 05:24:36;;;;;;;12.48;5.78;;;3.20;99.90;;;;;;4973596;29;20038;-80
2021/10/14 05:27:02;;;;;;;9.88;5.63;;;3.30;99.90;;;;;;4968654;29;20035;-80
2021/10/14 05:29:27;;;;;;;10.25;5.60;;;3.30;99.90;;;;;;4972549;28;20078;-80
2021/10/14 05:31:53;;;;;;;13.35;6.57;;;3.20;99.90;;;;;;4972907;28;20089;-81
2021/10/14 05:34:19;;;;;;;17.38;8.85;;;4.30;99.90;;;;;;4952966;29;20032;-80
2021/10/14 05:36:44;;;;;;;16.58;9.32;;;3.20;99.90;;;;;;4954295;29;20035;-79
2021/10/14 05:39:10;;;;;;;13.25;7.90;;;3.10;99.90;;;;;;4970202;28;20039;-80
2021/10/14 05:41:35;;;;;;;13.43;7.90;;;3.00;99.90;;;;;;4973444;28;20373;-80
2021/10/14 05:44:01;;;;;;;22.42;8.73;;;3.00;99.90;;;;;;4952910;29;20122;-79
2021/10/14 05:46:26;;;;;;;13.43;8.77;;;2.90;99.90;;;;;;4955051;29;20516;-80
2021/10/14 05:48:52;;;;;;;13.85;8.77;;;2.90;99.90;;;;;;4960169;28;20047;-79
2021/10/14 05:51:17;;;;;;;19.00;9.30;;;2.80;99.90;;;;;;4953709;29;20016;-79
2021/10/14 05:53:43;;;;;;;14.85;8.43;;;3.80;99.90;;;;;;4967381;28;20023;-79
2021/10/14 05:56:09;;;;;;;18.42;10.32;;;3.20;99.90;;;;;;4969139;28;20038;-79
2021/10/14 05:58:35;;;;;;;19.23;10.13;;;3.40;99.90;;;;;;4958186;28;20031;-79
2021/10/14 06:01:00;;;;;;;16.85;9.57;;;3.50;99.90;;;;;;4956750;29;20405;-80
2021/10/14 06:03:26;;;;;;;19.67;9.63;;;3.80;99.90;;;;;;4934428;28;20039;-80
2021/10/14 06:05:51;;;;;;;19.92;10.05;;;3.90;99.90;;;;;;4957000;29;20035;-80
2021/10/14 06:08:17;;;;;;;13.82;9.15;;;4.30;99.90;;;;;;4966527;28;20174;-80
2021/10/14 06:10:43;;;;;;;15.15;8.07;;;4.10;99.90;;;;;;4958653;28;20027;-80
2021/10/14 06:13:08;;;;;;;12.68;7.13;;;4.20;99.90;;;;;;4968159;28;20476;-79
2021/10/14 06:15:34;;;;;;;13.45;7.30;;;4.30;99.90;;;;;;4957281;29;20030;-80
2021/10/14 06:17:59;;;;;;;18.20;6.82;;;4.30;99.90;;;;;;4963997;28;20500;-80
2021/10/14 06:20:25;;;;;;;14.27;6.65;;;4.40;99.90;;;;;;4975765;28;20041;-79
2021/10/14 06:22:51;;;;;;;13.85;6.82;;;4.50;99.90;;;;;;4953124;29;20425;-78
2021/10/14 06:25:17;;;;;;;11.50;6.45;;;4.60;99.90;;;;;;4957035;29;20030;-78
2021/10/14 06:27:42;;;;;;;13.85;6.65;;;4.80;99.90;;;;;;4944715;28;20027;-78
2021/10/14 06:30:08;;;;;;;14.77;6.97;;;4.90;99.90;;;;;;4976471;28;20031;-80
2021/10/14 06:32:34;;;;;;;15.82;7.63;;;4.90;99.90;;;;;;4976234;28;20030;-78
2021/10/14 06:35:00;;;;;;;17.48;8.48;;;5.00;99.90;;;;;;4970968;28;20086;-78
2021/10/14 06:37:25;;;;;;;12.23;6.82;;;5.10;99.90;;;;;;4980753;28;20019;-79
2021/10/14 06:39:51;;;;;;;15.52;6.82;;;5.10;99.90;;;;;;4970364;28;20075;-80
2021/10/14 06:42:16;;;;;;;19.63;7.70;;;5.10;99.90;;;;;;4960041;28;20031;-80
2021/10/14 06:44:42;;;;;;;12.45;7.38;;;5.20;99.90;;;;;;4960009;28;20031;-80
2021/10/14 06:47:08;;;;;;;12.05;6.88;;;5.00;99.90;;;;;;4960150;28;20035;-80
2021/10/14 06:49:33;;;;;;;11.63;6.53;;;5.20;99.90;;;;;;4978856;28;20062;-80
2021/10/14 06:51:59;;;;;;;15.15;8.20;;;5.40;99.90;;;;;;4978751;28;20481;-80
2021/10/14 06:54:25;;;;;;;13.75;7.88;;;5.60;99.90;;;;;;4960258;28;20441;-80
2021/10/14 06:56:50;;;;;;;13.95;6.97;;;5.40;99.90;;;;;;4960049;29;20027;-81
2021/10/14 06:59:16;;;;;;;15.15;7.30;;;5.40;99.90;;;;;;4977704;28;20042;-80
2021/10/14 07:01:41;;;;;;;15.07;7.75;;;5.90;99.90;;;;;;4954605;29;20046;-83
2021/10/14 07:04:07;;;;;;;11.73;7.57;;;6.40;99.90;;;;;;4959803;28;20542;-81
2021/10/14 07:06:33;;;;;;;12.98;7.60;;;5.90;99.90;;;;;;4959693;28;20031;-80
2021/10/14 07:08:59;;;;;;;13.98;7.20;;;6.00;99.90;;;;;;4974782;28;20034;-80
2021/10/14 07:11:40;;;;;;;12.90;7.18;;;5.90;99.90;;;;;;4978126;28;20030;-80
2021/10/14 07:14:06;;;;;;;24.35;10.98;;;6.10;99.90;;;;;;4962925;28;20034;-79
2021/10/14 07:16:31;;;;;;;18.48;10.00;;;6.10;99.90;;;;;;4960575;29;20496;-82
2021/10/14 07:18:57;;;;;;;23.63;10.43;;;6.30;99.90;;;;;;4960264;28;20110;-82
2021/10/14 07:21:23;;;;;;;15.13;7.65;;;6.50;99.90;;;;;;4965186;29;20039;-82
2021/10/14 07:23:49;;;;;;;12.85;6.70;;;6.40;99.90;;;;;;4975187;28;20053;-83
2021/10/14 07:26:14;;;;;;;8.70;6.10;;;6.60;99.90;;;;;;4956572;29;20571;-82
2021/10/14 07:28:40;;;;;;;10.98;6.13;;;6.60;99.90;;;;;;4971188;28;20086;-82
2021/10/14 07:31:05;;;;;;;9.25;5.97;;;6.70;99.90;;;;;;4978937;28;20026;-80
2021/10/14 07:33:31;;;;;;;15.43;7.15;;;6.80;99.90;;;;;;4973666;28;20110;-81
2021/10/14 07:35:57;;;;;;;8.70;5.13;;;7.70;99.90;;;;;;4961086;28;20035;-81
2021/10/14 07:38:22;;;;;;;9.85;6.55;;;6.90;99.90;;;;;;4953340;28;20121;-81
2021/10/14 07:40:48;;;;;;;8.70;5.53;;;8.40;99.90;;;;;;4961553;28;20033;-81
2021/10/14 07:43:14;;;;;;;8.77;5.32;;;7.60;99.90;;;;;;4971580;28;20516;-80
2021/10/14 07:45:42;;;;;;;8.50;4.57;;;7.60;99.90;;;;;;4960391;29;20031;-82
2021/10/14 07:48:07;;;;;;;7.75;4.07;;;7.80;99.90;;;;;;4968346;28;20030;-83
2021/10/14 07:50:34;;;;;;;6.25;4.20;;;8.30;99.90;;;;;;4984202;28;20027;-82
2021/10/14 07:53:00;;;;;;;8.23;4.47;;;8.00;99.90;;;;;;4976398;28;20111;-81
2021/10/14 07:55:25;;;;;;;8.25;4.85;;;8.70;99.90;;;;;;4967874;29;20166;-81
2021/10/14 07:57:51;;;;;;;7.68;3.60;;;8.20;99.90;;;;;;4966623;28;20027;-82
2021/10/14 08:00:17;;;;;;;6.40;3.72;;;8.50;99.90;;;;;;4963755;28;20027;-81
2021/10/14 08:02:42;;;;;;;5.78;3.35;;;8.40;99.90;;;;;;4959449;29;20039;-81
2021/10/14 08:05:09;;;;;;;7.20;3.42;;;8.20;99.90;;;;;;4959452;29;20038;-81
2021/10/14 08:07:35;;;;;;;7.68;3.90;;;8.20;99.90;;;;;;4970284;28;20392;-82
2021/10/14 08:10:01;;;;;;;7.85;3.72;;;8.40;99.90;;;;;;4951548;28;20039;-82
2021/10/14 08:12:29;;;;;;;6.55;3.78;;;8.20;99.90;;;;;;4975435;28;20242;-82
2021/10/14 08:14:54;;;;;;;6.35;4.35;;;8.50;99.90;;;;;;4960572;29;20034;-82
2021/10/14 08:17:20;;;;;;;8.90;3.53;;;8.50;99.90;;;;;;4926908;29;20031;-82
2021/10/14 08:19:46;;;;;;;5.10;2.92;;;9.10;99.90;;;;;;4957209;29;20042;-80
2021/10/14 08:22:11;;;;;;;11.40;2.92;;;9.10;99.90;;;;;;4956841;28;20035;-80
2021/10/14 08:24:39;;;;;;;5.88;2.80;;;9.40;99.90;;;;;;4932747;29;20035;-82
2021/10/14 08:27:06;;;;;;;7.63;3.03;;;10.00;99.90;;;;;;4953182;29;20019;-82
2021/10/14 08:29:32;;;;;;;5.03;3.03;;;9.80;99.90;;;;;;4943821;29;20027;-83
2021/10/14 08:32:01;;;;;;;8.02;3.22;;;9.90;99.90;;;;;;4955162;29;20027;-82
2021/10/14 08:34:27;;;;;;;4.80;2.53;;;9.90;99.90;;;;;;4955420;28;20027;-82
2021/10/14 08:36:52;;;;;;;6.88;3.08;;;11.10;99.90;;;;;;4945817;28;20113;-82
2021/10/14 08:39:18;;;;;;;5.93;2.53;;;10.50;99.90;;;;;;4941668;29;20126;-82
2021/10/14 08:41:46;;;;;;;8.88;2.80;;;10.40;99.90;;;;;;4968342;28;20115;-82
2021/10/14 08:44:18;;;;;;;6.47;2.53;;;10.70;99.90;;;;;;4962046;28;20174;-81
2021/10/14 08:46:44;;;;;;;4.20;2.55;;;11.80;99.90;;;;;;4955328;29;20039;-81
2021/10/14 08:49:10;;;;;;;5.55;2.63;;;11.70;99.90;;;;;;4940001;29;20046;-81
2021/10/14 08:51:36;;;;;;;5.15;2.70;;;12.30;99.90;;;;;;4954574;28;20050;-81
2021/10/14 08:54:12;;;;;;;6.47;2.60;;;12.60;99.90;;;;;;4918875;29;20277;-81
2021/10/14 08:56:43;;;;;;;5.32;2.45;;;12.70;99.90;;;;;;4944938;28;20041;-81
2021/10/14 08:59:12;;;;;;;5.47;2.70;;;12.80;99.90;;;;;;4959345;28;20029;-81
2021/10/14 09:01:40;;;;;;;8.43;2.55;;;13.00;99.90;;;;;;4952445;29;20035;-81
2021/10/14 09:04:14;;;;;;;9.40;2.90;;;13.40;99.90;;;;;;4950447;28;20090;-80
2021/10/14 09:06:41;;;;;;;6.10;2.97;;;13.80;99.90;;;;;;4971212;28;20069;-81
2021/10/14 09:09:06;;;;;;;4.43;2.53;;;14.60;99.90;;;;;;4932833;28;20118;-80
2021/10/14 09:11:32;;;;;;;6.68;3.60;;;;;;;;;;4945998;28;20110;-83
2021/10/14 09:13:58;;;;;;;5.25;2.70;;;;;;;;;;4959967;28;20693;-80
2021/10/14 09:16:32;;;;;;;4.93;2.17;;;;;;;;;;4973036;28;20085;-79
2021/10/14 09:19:11;;;;;;;7.22;2.92;;;;;;;;;;4974207;28;20027;-81
2021/10/14 09:21:39;;;;;;;5.88;2.42;;;;;;;;;;4973519;28;20027;-79
2021/10/14 09:24:23;;;;;;;4.03;2.20;;;;;;;;;;4966994;28;20030;-79
2021/10/14 09:26:49;;;;;;;4.47;2.60;;;;;;;;;;4956065;29;20034;-79
2021/10/14 09:29:15;;;;;;;6.68;2.35;;;;;;;;;;4954771;28;20575;-80
2021/10/14 09:31:52;;;;;;;5.70;2.47;;;;;;;;;;4953243;29;20034;-80
2021/10/14 09:34:27;;;;;;;7.90;2.65;;;;;;;;;;4944971;29;20030;-79
2021/10/14 09:36:53;;;;;;;6.82;3.08;;;;;;;;;;4947606;29;20031;-80
2021/10/14 09:39:20;;;;;;;7.95;3.20;;;;;;;;;;4974744;28;20039;-81
2021/10/14 09:41:46;;;;;;;4.70;2.53;;;;;;;;;;4974019;28;20036;-81
2021/10/14 09:44:14;;;;;;;5.35;2.55;;;;;;;;;;4966854;29;20042;-80
2021/10/14 09:46:42;;;;;;;5.88;2.47;;;;;;;;;;4974438;28;20027;-80
2021/10/14 09:49:09;;;;;;;5.65;3.10;;;;;;;;;;4953369;29;20032;-81
2021/10/14 09:51:36;;;;;;;6.18;3.05;;;;;;;;;;4964591;29;20440;-81
2021/10/14 09:54:02;;;;;;;7.15;2.83;;;;;;;;;;4941102;29;20086;-79
2021/10/14 09:56:29;;;;;;;4.13;2.80;;;;;;;;;;4950281;29;20348;-80
2021/10/14 09:58:57;;;;;;;6.07;3.03;;;;;;;;;;4971550;28;20031;-81
2021/10/14 10:01:23;;;;;;;10.30;3.00;;;;;;;;;;4965396;29;20546;-80
2021/10/14 10:03:50;;;;;;;5.50;2.80;;;;;;;;;;4966052;28;20034;-80
2021/10/14 10:06:17;;;;;;;6.60;2.90;;;;;;;;;;4947329;29;20027;-79
2021/10/14 10:08:43;;;;;;;5.00;2.67;;;;;;;;;;4968795;28;20043;-79
2021/10/14 10:11:14;;;;;;;5.28;2.90;;;;;;;;;;4971542;28;20027;-79
2021/10/14 10:13:44;;;;;;;7.05;2.92;;;;;;;;;;4955450;28;20118;-80
2021/10/14 10:16:17;;;;;;;7.65;2.72;;;;;;;;;;4974318;28;20030;-80
2021/10/14 10:18:43;;;;;;;;;;;;;;;;;;4977783;28;20406;-78
2021/10/14 10:21:10;;;;;;;7.47;2.63;;;;;;;;;;4975075;28;20004;-80
2021/10/14 10:23:52;;;;;;;7.50;2.80;;;;;;;;;;4975317;28;20105;-81
2021/10/14 10:26:44;;;;;;;6.93;2.60;;;;;;;;;;4970617;28;20100;-79
2021/10/14 10:29:16;;;;;;;4.88;2.60;;;;;;;;;;4960829;28;20031;-78
2021/10/14 10:31:48;;;;;;;9.00;3.03;;;;;;;;;;4962319;28;20234;-79
2021/10/14 10:34:31;;;;;;;8.73;3.10;;;;;;;;;;4981252;28;20026;-78
2021/10/14 10:37:09;;;;;;;4.90;2.45;;;;;;;;;;4939818;29;20050;-79
2021/10/14 10:39:46;;;;;;;5.55;2.60;;;;;;;;;;4953011;28;20082;-79
2021/10/14 10:42:23;;;;;;;6.70;2.50;;;;;;;;;;4958470;29;20027;-78
2021/10/14 10:44:49;;;;;;;5.63;2.63;;;;;;;;;;4970212;28;20031;-79
2021/10/14 10:47:33;;;;;;;6.80;2.90;;;;;;;;;;4965009;28;20392;-79
2021/10/14 10:49:59;;;;;;;6.60;3.13;;;;;;;;;;4976186;28;20035;-81
2021/10/14 10:52:38;;;;;;;5.25;2.50;;;;;;;;;;4944215;29;20042;-81
2021/10/14 10:55:24;;;;;;;6.20;2.60;;;;;;;;;;4961390;28;20039;-79
2021/10/14 10:57:51;;;;;;;8.57;2.70;;;;;;;;;;4958185;29;20067;-80
2021/10/14 11:00:18;;;;;;;7.75;2.28;;;;;;;;;;4962402;28;20039;-82
2021/10/14 11:02:44;;;;;;;5.78;2.80;;;;;;;;;;4961126;28;20569;-83
2021/10/14 11:05:15;;;;;;;5.35;3.10;;;;;;;;;;4961379;29;20035;-83
2021/10/14 11:07:41;;;;;;;7.38;2.97;;;;;;;;;;4944434;29;20035;-82
2021/10/14 11:10:07;;;;;;;5.30;2.25;;;;;;;;;;4975284;28;20031;-84
2021/10/14 11:12:39;;;;;;;4.60;2.95;;;;;;;;;;4982422;28;20030;-83
2021/10/14 11:15:15;;;;;;;3.70;2.25;;;;;;;;;;4966743;29;20031;-83
2021/10/14 11:17:41;;;;;;;7.13;2.60;;;;;;;;;;4960027;28;20110;-84
2021/10/14 11:20:08;;;;;;;5.15;2.40;;;;;;;;;;4962007;28;20016;-84
2021/10/14 11:22:34;;;;;;;4.38;1.85;;;;;;;;;;4965358;29;20038;-83
2021/10/14 11:25:03;;;;;;;2.60;1.75;;;;;;;;;;4980235;28;20027;-82
2021/10/14 11:27:30;;;;;;;4.15;1.80;;;;;;;;;;4951462;28;20054;-82
2021/10/14 11:30:17;;;;;;;4.13;1.75;;;;;;;;;;4983032;28;20035;-82
2021/10/14 11:32:50;;;;;;;6.18;1.75;;;;;;;;;;4980777;28;20023;-83
2021/10/14 11:35:16;;;;;;;7.93;2.08;;;;;;;;;;4948578;29;20186;-83
2021/10/14 11:37:53;;;;;;;;;;;;;;;;;;;;;
2021/10/14 11:40:35;;;;;;;4.90;2.00;;;;;;;;;;4956780;28;20031;-82
2021/10/14 11:43:01;;;;;;;4.43;2.00;;;;;;;;;;4944384;28;20031;-81
2021/10/14 11:45:27;;;;;;;6.03;1.60;;;;;;;;;;4941924;29;20485;-81
2021/10/14 11:47:53;;;;;;;4.45;1.80;;;;;;;;;;4950997;28;20035;-82
2021/10/14 11:50:23;;;;;;;6.20;1.95;;;;;;;;;;4959146;28;20424;-83
2021/10/14 11:52:59;;;;;;;2.95;1.35;;;;;;;;;;4961786;29;20059;-84
2021/10/14 11:55:25;;;;;;;3.20;1.23;;;;;;;;;;4955740;28;20034;-84
2021/10/14 11:57:51;;;;;;;4.68;1.48;;;;;;;;;;4960365;28;20098;-81
2021/10/14 12:00:17;;;;;;;2.80;1.35;;;;;;;;;;4978022;28;20076;-82
2021/10/14 12:02:43;;;;;;;7.22;1.30;;;;;;;;;;4968488;28;20043;-83
2021/10/14 12:05:09;;;;;;;3.50;1.13;;;;;;;;;;4971052;28;20019;-82
2021/10/14 12:07:35;;;;;;;3.15;1.30;;;;;;;;;;4968419;28;20035;-82
2021/10/14 12:10:02;;;;;;;3.33;1.50;;;;;;;;;;4953349;28;20027;-83
2021/10/14 12:12:29;;;;;;;2.63;1.08;;;;;;;;;;4978543;28;20086;-81
2021/10/14 12:14:59;;;;;;;6.38;1.77;;;;;;;;;;4959769;29;20039;-83
2021/10/14 12:17:35;;;;;;;4.18;1.30;;;;;;;;;;4970002;28;20041;-83
2021/10/14 12:20:09;;;;;;;3.95;1.10;;;;;;;;;;4958755;28;20031;-82
2021/10/14 12:22:39;;;;;;;2.17;1.20;;;;;;;;;;4978371;28;20054;-82
2021/10/14 12:25:06;;;;;;;3.03;1.48;;;;;;;;;;4964360;28;20412;-81
2021/10/14 12:27:45;;;;;;;5.50;1.70;;;;;;;;;;4957920;29;20074;-83
2021/10/14 12:30:30;;;;;;;4.75;1.27;;;;;;;;;;4955814;29;20146;-83
2021/10/14 12:32:57;;;;;;;1.77;1.02;;;;;;;;;;4964168;28;20041;-82
2021/10/14 12:35:24;;;;;;;3.47;1.27;;;;;;;;;;4957926;29;20043;-81
2021/10/14 12:38:02;;;;;;;3.50;1.25;;;;;;;;;;4955116;29;20441;-83
2021/10/14 12:40:29;;;;;;;6.18;1.30;;;;;;;;;;4974748;28;20050;-83
2021/10/14 12:46:16;;;;;;;4.57;1.65;;;;;;;;;;4963547;28;20597;-84
2021/10/14 12:51:18;;;;;;;4.50;1.20;;;;;;;;;;4958391;29;19911;-83
2021/10/14 12:53:43;;;;;;;4.70;1.40;;;;;;;;;;4956117;28;20063;-83
2021/10/14 12:56:09;;;;;;;4.80;1.58;;;;;;;;;;4957259;29;20148;-80
2021/10/14 12:58:35;;;;;;;2.67;1.17;;;;;;;;;;4944652;28;20022;-82
2021/10/14 13:01:05;;;;;;;4.57;1.25;;;;;;;;;;4976781;28;20095;-81
2021/10/14 13:03:32;;;;;;;4.05;1.38;;;;;;;;;;4968986;28;20042;-81
2021/10/14 13:05:58;;;;;;;5.50;1.42;;;;;;;;;;4976404;28;20034;-85
2021/10/14 13:08:25;;;;;;;4.53;1.60;;;;;;;;;;4972414;28;20035;-83
2021/10/14 13:10:52;;;;;;;3.97;1.52;;;;;;;;;;4967432;28;20023;-82
2021/10/14 13:13:18;;;;;;;6.10;1.42;;;;;;;;;;4966377;28;20110;-84
2021/10/14 13:15:44;;;;;;;4.55;1.50;;;;;;;;;;4963250;29;20059;-84
2021/10/14 13:18:10;;;;;;;4.50;1.55;;;;;;;;;;4963597;28;20997;-83
2021/10/14 13:20:38;;;;;;;4.22;1.20;;;;;;;;;;4960774;28;20118;-82
2021/10/14 13:23:04;;;;;;;3.80;1.40;;;;;;;;;;4963979;28;20094;-80
2021/10/14 13:25:30;;;;;;;3.20;1.30;;;;;;;;;;4984388;28;20039;-82
2021/10/14 13:27:56;;;;;;;3.00;1.08;;;;;;;;;;4982252;28;20035;-82
2021/10/14 13:30:22;;;;;;;3.05;1.20;;;;;;;;;;4982221;28;20503;-80